Últimos artigos:
Acender um LED com a tensão da rede eléctrica
Programação do Yaesu FT-60 para os EasySats
AO-91 (RadFxSat Fox-1B) está no Ar!
CT7AFR DIY CW-Keyer
Shutdown button for the Raspberry Pi
Simple C code to dump I2C device memory
Últimas fotos:
Últimos METARs:
LPAZ 171500Z 23014KT 9999 FEW004 BKN008 20...
LPFR 171500Z 12006KT 9999 FEW030 17/13 Q10...
LPHR 171500Z 12004KT 090V180 9999 FEW012 1...
LPLA 171500Z /////KT 9999 FEW013 SCT040 20...
LPMA 171500Z 20013KT 9999 FEW015 20/14 Q10...
LPPD 171500Z 27013KT 3000 -SHRA BR SCT006 ...
LPPR 171500Z VRB01KT CAVOK 13/06 Q1031=
LPPS 171500Z 18012KT 9999 FEW015 20/15 Q10...
LPPT 171500Z 10006KT 050V130 9999 SCT012 1...
Últimos QSOs:
2019/11/10-11:46 40m EA5INS (JON)
2019/11/10-11:43 40m G0FVH (DAVID.)
2019/11/10-11:38 40m EA4GU (MANUEL)
2019/11/10-11:38 40m EA7KAU (JUSTO)
2019/11/10-11:37 40m EA2CPG (PEDRO)
2019/11/10-11:36 40m CS7ALA (FELISBERTO)
  UTC
Rpi-6 CPU Temp: 454642.0 °C (251812Z)
IN51oq 1530Z /////KT //// 18/13 Q1031=
85063